Terminal Aerodrome Forecast
Issued by NWS

Home | Current Version | Previous Version | Text Only | Print | Product List | Glossary On
Versions: 1 2 3 4 5 6 7 8 9 10 11 12 13 14 15 16 17 18 19 20 21 22 23 24 25
000
FTUS44 KOHX 230300 AAC
TAFCKV
TAF AMD
KCKV 230342Z 2304/2324 18004KT P6SM VCSH OVC009
      TEMPO 2304/2306 3SM SHRA BR BKN007 OVC010
     FM230600 17012KT 4SM -SHRA BR OVC009
     FM231300 17007KT 2SM -SHRA BR OVC007=

USA.gov is the U.S. government's official web portal to all federal, state and local government web resources and services.